sensor_id;sensor_type;location;lat;lon;timestamp;temperature;humidity
48744;DHT22;34538;48.836;9.174;2023-05-17T00:02:07;8.10;99.90
48744;DHT22;34538;48.836;9.174;2023-05-17T00:04:34;8.00;99.90
48744;DHT22;34538;48.836;9.174;2023-05-17T00:07:01;8.00;99.90
48744;DHT22;34538;48.836;9.174;2023-05-17T00:09:29;8.00;99.90
48744;DHT22;34538;48.836;9.174;2023-05-17T00:11:55;8.00;99.90
48744;DHT22;34538;48.836;9.174;2023-05-17T00:14:22;8.00;99.90
48744;DHT22;34538;48.836;9.174;2023-05-17T00:16:49;7.90;99.90
48744;DHT22;34538;48.836;9.174;2023-05-17T00:19:17;7.90;99.90
48744;DHT22;34538;48.836;9.174;2023-05-17T00:21:44;7.90;99.90
48744;DHT22;34538;48.836;9.174;2023-05-17T00:24:10;7.80;99.90
48744;DHT22;34538;48.836;9.174;2023-05-17T00:26:38;7.80;99.90
48744;DHT22;34538;48.836;9.174;2023-05-17T00:29:05;7.70;99.90
48744;DHT22;34538;48.836;9.174;2023-05-17T00:31:32;7.70;99.90
48744;DHT22;34538;48.836;9.174;2023-05-17T00:33:59;7.70;99.90
48744;DHT22;34538;48.836;9.174;2023-05-17T00:36:26;7.70;99.90
48744;DHT22;34538;48.836;9.174;2023-05-17T00:38:53;7.70;99.90
48744;DHT22;34538;48.836;9.174;2023-05-17T00:41:20;7.70;99.90
48744;DHT22;34538;48.836;9.174;2023-05-17T00:43:48;7.70;99.90
48744;DHT22;34538;48.836;9.174;2023-05-17T00:46:15;7.70;99.90
48744;DHT22;34538;48.836;9.174;2023-05-17T00:48:42;7.70;99.90
48744;DHT22;34538;48.836;9.174;2023-05-17T00:51:09;7.60;99.90
48744;DHT22;34538;48.836;9.174;2023-05-17T00:53:37;7.70;99.90
48744;DHT22;34538;48.836;9.174;2023-05-17T00:56:04;7.60;99.90
48744;DHT22;34538;48.836;9.174;2023-05-17T00:58:32;7.60;99.90
48744;DHT22;34538;48.836;9.174;2023-05-17T01:01:00;7.50;99.90
48744;DHT22;34538;48.836;9.174;2023-05-17T01:03:27;7.40;99.90
48744;DHT22;34538;48.836;9.174;2023-05-17T01:05:54;7.30;99.90
48744;DHT22;34538;48.836;9.174;2023-05-17T01:08:21;7.20;99.90
48744;DHT22;34538;48.836;9.174;2023-05-17T01:10:53;7.20;99.90
48744;DHT22;34538;48.836;9.174;2023-05-17T01:13:24;7.10;99.90
48744;DHT22;34538;48.836;9.174;2023-05-17T01:16:02;7.00;99.90
48744;DHT22;34538;48.836;9.174;2023-05-17T01:18:36;6.90;99.90
48744;DHT22;34538;48.836;9.174;2023-05-17T01:21:11;6.80;99.90
48744;DHT22;34538;48.836;9.174;2023-05-17T01:23:47;6.80;99.90
48744;DHT22;34538;48.836;9.174;2023-05-17T01:26:31;6.70;99.90
48744;DHT22;34538;48.836;9.174;2023-05-17T01:29:01;6.70;99.90
48744;DHT22;34538;48.836;9.174;2023-05-17T01:31:31;6.60;99.90
48744;DHT22;34538;48.836;9.174;2023-05-17T01:33:58;6.60;99.90
48744;DHT22;34538;48.836;9.174;2023-05-17T01:36:27;6.60;99.90
48744;DHT22;34538;48.836;9.174;2023-05-17T01:38:53;6.60;99.90
48744;DHT22;34538;48.836;9.174;2023-05-17T01:41:28;6.60;99.90
48744;DHT22;34538;48.836;9.174;2023-05-17T01:44:04;6.50;99.90
48744;DHT22;34538;48.836;9.174;2023-05-17T01:46:38;6.60;99.90
48744;DHT22;34538;48.836;9.174;2023-05-17T01:49:10;6.60;99.90
48744;DHT22;34538;48.836;9.174;2023-05-17T01:51:44;6.60;99.90
48744;DHT22;34538;48.836;9.174;2023-05-17T01:54:12;6.70;99.90
48744;DHT22;34538;48.836;9.174;2023-05-17T01:56:43;6.60;99.90
48744;DHT22;34538;48.836;9.174;2023-05-17T01:59:14;6.60;99.90
48744;DHT22;34538;48.836;9.174;2023-05-17T02:01:46;6.70;99.90
48744;DHT22;34538;48.836;9.174;2023-05-17T02:04:14;6.70;99.90
48744;DHT22;34538;48.836;9.174;2023-05-17T02:06:40;6.60;99.90
48744;DHT22;34538;48.836;9.174;2023-05-17T02:09:07;6.60;99.90
48744;DHT22;34538;48.836;9.174;2023-05-17T02:11:35;6.60;99.90
48744;DHT22;34538;48.836;9.174;2023-05-17T02:14:03;6.60;99.90
48744;DHT22;34538;48.836;9.174;2023-05-17T02:16:30;6.60;99.90
48744;DHT22;34538;48.836;9.174;2023-05-17T02:18:56;6.60;99.90
48744;DHT22;34538;48.836;9.174;2023-05-17T02:21:23;6.50;99.90
48744;DHT22;34538;48.836;9.174;2023-05-17T02:23:50;6.50;99.90
48744;DHT22;34538;48.836;9.174;2023-05-17T02:26:18;6.50;99.90
48744;DHT22;34538;48.836;9.174;2023-05-17T02:28:44;6.40;99.90
48744;DHT22;34538;48.836;9.174;2023-05-17T02:31:12;6.40;99.90
48744;DHT22;34538;48.836;9.174;2023-05-17T02:33:39;6.40;99.90
48744;DHT22;34538;48.836;9.174;2023-05-17T02:36:06;6.30;99.90
48744;DHT22;34538;48.836;9.174;2023-05-17T02:38:33;6.30;99.90
48744;DHT22;34538;48.836;9.174;2023-05-17T02:41:00;6.30;99.90
48744;DHT22;34538;48.836;9.174;2023-05-17T02:43:30;6.20;99.90
48744;DHT22;34538;48.836;9.174;2023-05-17T02:45:57;6.20;99.90
48744;DHT22;34538;48.836;9.174;2023-05-17T02:48:25;6.10;99.90
48744;DHT22;34538;48.836;9.174;2023-05-17T02:50:52;6.00;99.90
48744;DHT22;34538;48.836;9.174;2023-05-17T02:53:18;6.00;99.90
48744;DHT22;34538;48.836;9.174;2023-05-17T02:55:45;5.90;99.90
48744;DHT22;34538;48.836;9.174;2023-05-17T02:58:12;5.80;99.90
48744;DHT22;34538;48.836;9.174;2023-05-17T03:00:43;5.80;99.90
48744;DHT22;34538;48.836;9.174;2023-05-17T03:03:10;5.70;99.90
48744;DHT22;34538;48.836;9.174;2023-05-17T03:05:39;5.70;99.90
48744;DHT22;34538;48.836;9.174;2023-05-17T03:08:05;5.60;99.90
48744;DHT22;34538;48.836;9.174;2023-05-17T03:10:32;5.60;99.90
48744;DHT22;34538;48.836;9.174;2023-05-17T03:12:59;5.50;99.90
48744;DHT22;34538;48.836;9.174;2023-05-17T03:15:30;5.50;99.90
48744;DHT22;34538;48.836;9.174;2023-05-17T03:17:57;5.40;99.90
48744;DHT22;34538;48.836;9.174;2023-05-17T03:20:25;5.40;99.90
48744;DHT22;34538;48.836;9.174;2023-05-17T03:22:53;5.40;99.90
48744;DHT22;34538;48.836;9.174;2023-05-17T03:25:20;5.30;99.90
48744;DHT22;34538;48.836;9.174;2023-05-17T03:27:47;5.30;99.90
48744;DHT22;34538;48.836;9.174;2023-05-17T03:30:14;5.20;99.90
48744;DHT22;34538;48.836;9.174;2023-05-17T03:32:41;5.20;99.90
48744;DHT22;34538;48.836;9.174;2023-05-17T03:35:08;5.20;99.90
48744;DHT22;34538;48.836;9.174;2023-05-17T03:37:36;5.10;99.90
48744;DHT22;34538;48.836;9.174;2023-05-17T03:40:06;5.10;99.90
48744;DHT22;34538;48.836;9.174;2023-05-17T03:42:33;5.10;99.90
48744;DHT22;34538;48.836;9.174;2023-05-17T03:45:03;5.10;99.90
48744;DHT22;34538;48.836;9.174;2023-05-17T03:47:30;5.10;99.90
48744;DHT22;34538;48.836;9.174;2023-05-17T03:49:57;5.10;99.90
48744;DHT22;34538;48.836;9.174;2023-05-17T03:52:24;5.10;99.90
48744;DHT22;34538;48.836;9.174;2023-05-17T03:54:51;5.10;99.90
48744;DHT22;34538;48.836;9.174;2023-05-17T03:57:20;5.10;99.90
48744;DHT22;34538;48.836;9.174;2023-05-17T03:59:47;5.20;99.90
48744;DHT22;34538;48.836;9.174;2023-05-17T04:02:16;5.20;99.90
48744;DHT22;34538;48.836;9.174;2023-05-17T04:04:48;5.30;99.90
48744;DHT22;34538;48.836;9.174;2023-05-17T04:07:16;5.30;99.90
48744;DHT22;34538;48.836;9.174;2023-05-17T04:09:43;5.30;99.90
48744;DHT22;34538;48.836;9.174;2023-05-17T04:12:10;5.30;99.90
48744;DHT22;34538;48.836;9.174;2023-05-17T04:14:39;5.40;99.90
48744;DHT22;34538;48.836;9.174;2023-05-17T04:17:06;5.40;99.90
48744;DHT22;34538;48.836;9.174;2023-05-17T04:19:33;5.40;99.90
48744;DHT22;34538;48.836;9.174;2023-05-17T04:22:00;5.40;99.90
48744;DHT22;34538;48.836;9.174;2023-05-17T04:24:28;5.40;99.90
48744;DHT22;34538;48.836;9.174;2023-05-17T04:26:56;5.50;99.90
48744;DHT22;34538;48.836;9.174;2023-05-17T04:29:24;5.50;99.90
48744;DHT22;34538;48.836;9.174;2023-05-17T04:31:52;5.60;99.90
48744;DHT22;34538;48.836;9.174;2023-05-17T04:34:20;5.60;99.90
48744;DHT22;34538;48.836;9.174;2023-05-17T04:36:48;5.60;99.90
48744;DHT22;34538;48.836;9.174;2023-05-17T04:39:15;5.60;99.90
48744;DHT22;34538;48.836;9.174;2023-05-17T04:41:43;5.70;99.90
48744;DHT22;34538;48.836;9.174;2023-05-17T04:44:11;5.70;99.90
48744;DHT22;34538;48.836;9.174;2023-05-17T04:46:38;5.80;99.90
48744;DHT22;34538;48.836;9.174;2023-05-17T04:49:07;5.80;99.90
48744;DHT22;34538;48.836;9.174;2023-05-17T04:51:34;5.90;99.90
48744;DHT22;34538;48.836;9.174;2023-05-17T04:54:01;6.00;99.90
48744;DHT22;34538;48.836;9.174;2023-05-17T04:56:32;6.00;99.90
48744;DHT22;34538;48.836;9.174;2023-05-17T04:58:59;6.10;99.90
48744;DHT22;34538;48.836;9.174;2023-05-17T05:01:28;6.20;99.90
48744;DHT22;34538;48.836;9.174;2023-05-17T05:03:56;6.30;99.90
48744;DHT22;34538;48.836;9.174;2023-05-17T05:06:25;6.40;99.90
48744;DHT22;34538;48.836;9.174;2023-05-17T05:08:52;6.40;99.90
48744;DHT22;34538;48.836;9.174;2023-05-17T05:11:19;6.50;99.90
48744;DHT22;34538;48.836;9.174;2023-05-17T05:13:46;6.60;99.90
48744;DHT22;34538;48.836;9.174;2023-05-17T05:16:12;6.60;99.90
48744;DHT22;34538;48.836;9.174;2023-05-17T05:18:39;6.70;99.90
48744;DHT22;34538;48.836;9.174;2023-05-17T05:21:06;6.90;99.90
48744;DHT22;34538;48.836;9.174;2023-05-17T05:23:35;6.90;99.90
48744;DHT22;34538;48.836;9.174;2023-05-17T05:26:01;7.10;99.90
48744;DHT22;34538;48.836;9.174;2023-05-17T05:28:29;7.20;99.90
48744;DHT22;34538;48.836;9.174;2023-05-17T05:30:57;7.40;99.90
48744;DHT22;34538;48.836;9.174;2023-05-17T05:33:25;7.50;99.90
48744;DHT22;34538;48.836;9.174;2023-05-17T05:35:52;7.60;99.90
48744;DHT22;34538;48.836;9.174;2023-05-17T05:38:19;7.80;99.90
48744;DHT22;34538;48.836;9.174;2023-05-17T05:40:47;7.90;99.90
48744;DHT22;34538;48.836;9.174;2023-05-17T05:43:15;8.10;99.90
48744;DHT22;34538;48.836;9.174;2023-05-17T05:45:42;8.20;99.90
48744;DHT22;34538;48.836;9.174;2023-05-17T05:48:11;8.40;99.90
48744;DHT22;34538;48.836;9.174;2023-05-17T05:50:39;8.50;99.90
48744;DHT22;34538;48.836;9.174;2023-05-17T05:53:09;8.80;99.90
48744;DHT22;34538;48.836;9.174;2023-05-17T05:55:39;8.90;99.90
48744;DHT22;34538;48.836;9.174;2023-05-17T05:58:08;9.10;99.90
48744;DHT22;34538;48.836;9.174;2023-05-17T06:00:36;9.20;99.90
48744;DHT22;34538;48.836;9.174;2023-05-17T06:03:04;9.30;99.90
48744;DHT22;34538;48.836;9.174;2023-05-17T06:05:31;9.30;99.90
48744;DHT22;34538;48.836;9.174;2023-05-17T06:07:57;9.40;99.90
48744;DHT22;34538;48.836;9.174;2023-05-17T06:10:24;9.30;99.90
48744;DHT22;34538;48.836;9.174;2023-05-17T06:12:51;9.20;99.90
48744;DHT22;34538;48.836;9.174;2023-05-17T06:15:19;9.20;99.90
48744;DHT22;34538;48.836;9.174;2023-05-17T06:17:46;9.10;99.90
48744;DHT22;34538;48.836;9.174;2023-05-17T06:20:13;9.10;99.90
48744;DHT22;34538;48.836;9.174;2023-05-17T06:22:41;9.10;99.90
48744;DHT22;34538;48.836;9.174;2023-05-17T06:25:09;9.10;99.90
48744;DHT22;34538;48.836;9.174;2023-05-17T06:27:36;9.10;99.90
48744;DHT22;34538;48.836;9.174;2023-05-17T06:30:04;9.20;99.90
48744;DHT22;34538;48.836;9.174;2023-05-17T06:32:32;9.30;99.90
48744;DHT22;34538;48.836;9.174;2023-05-17T06:34:59;9.40;99.90
48744;DHT22;34538;48.836;9.174;2023-05-17T06:37:26;9.50;99.90
48744;DHT22;34538;48.836;9.174;2023-05-17T06:39:53;9.70;99.90
48744;DHT22;34538;48.836;9.174;2023-05-17T06:42:27;9.90;99.90
48744;DHT22;34538;48.836;9.174;2023-05-17T06:44:53;10.00;99.90
48744;DHT22;34538;48.836;9.174;2023-05-17T06:47:20;10.10;99.90
48744;DHT22;34538;48.836;9.174;2023-05-17T06:49:48;10.10;99.90
48744;DHT22;34538;48.836;9.174;2023-05-17T06:52:16;10.00;99.90
48744;DHT22;34538;48.836;9.174;2023-05-17T06:54:43;9.90;99.90
48744;DHT22;34538;48.836;9.174;2023-05-17T06:57:10;9.90;99.90
48744;DHT22;34538;48.836;9.174;2023-05-17T06:59:37;10.00;99.90
48744;DHT22;34538;48.836;9.174;2023-05-17T07:02:04;9.90;99.90
48744;DHT22;34538;48.836;9.174;2023-05-17T07:04:30;9.90;99.90
48744;DHT22;34538;48.836;9.174;2023-05-17T07:06:59;9.90;99.90
48744;DHT22;34538;48.836;9.174;2023-05-17T07:09:25;9.90;99.90
48744;DHT22;34538;48.836;9.174;2023-05-17T07:11:52;10.00;99.90
48744;DHT22;34538;48.836;9.174;2023-05-17T07:14:19;10.00;99.90
48744;DHT22;34538;48.836;9.174;2023-05-17T07:16:46;10.10;99.90
48744;DHT22;34538;48.836;9.174;2023-05-17T07:19:13;10.10;99.90
48744;DHT22;34538;48.836;9.174;2023-05-17T07:21:40;10.20;99.90
48744;DHT22;34538;48.836;9.174;2023-05-17T07:24:08;10.20;99.90
48744;DHT22;34538;48.836;9.174;2023-05-17T07:26:35;10.20;99.90
48744;DHT22;34538;48.836;9.174;2023-05-17T07:29:02;10.30;99.90
48744;DHT22;34538;48.836;9.174;2023-05-17T07:31:29;10.30;99.90
48744;DHT22;34538;48.836;9.174;2023-05-17T07:33:56;10.40;99.90
48744;DHT22;34538;48.836;9.174;2023-05-17T07:36:22;10.40;99.90
48744;DHT22;34538;48.836;9.174;2023-05-17T07:38:51;10.50;99.90
48744;DHT22;34538;48.836;9.174;2023-05-17T07:41:20;10.50;99.90
48744;DHT22;34538;48.836;9.174;2023-05-17T07:43:48;10.60;99.90
48744;DHT22;34538;48.836;9.174;2023-05-17T07:46:14;10.70;99.90
48744;DHT22;34538;48.836;9.174;2023-05-17T07:48:41;10.60;99.90
48744;DHT22;34538;48.836;9.174;2023-05-17T07:51:08;10.50;99.90
48744;DHT22;34538;48.836;9.174;2023-05-17T07:53:35;10.60;99.90
48744;DHT22;34538;48.836;9.174;2023-05-17T07:56:03;10.60;99.90
48744;DHT22;34538;48.836;9.174;2023-05-17T07:58:31;10.70;99.90
48744;DHT22;34538;48.836;9.174;2023-05-17T08:00:58;10.70;99.90
48744;DHT22;34538;48.836;9.174;2023-05-17T08:03:25;10.70;99.90
48744;DHT22;34538;48.836;9.174;2023-05-17T08:05:53;10.70;99.90
48744;DHT22;34538;48.836;9.174;2023-05-17T08:08:19;10.70;99.90
48744;DHT22;34538;48.836;9.174;2023-05-17T08:10:46;10.70;99.90
48744;DHT22;34538;48.836;9.174;2023-05-17T08:13:14;10.80;99.90
48744;DHT22;34538;48.836;9.174;2023-05-17T08:15:42;11.00;99.90
48744;DHT22;34538;48.836;9.174;2023-05-17T08:18:09;11.00;99.90
48744;DHT22;34538;48.836;9.174;2023-05-17T08:20:36;11.10;99.90
48744;DHT22;34538;48.836;9.174;2023-05-17T08:23:03;11.20;99.90
48744;DHT22;34538;48.836;9.174;2023-05-17T08:25:30;11.30;99.90
48744;DHT22;34538;48.836;9.174;2023-05-17T08:27:56;11.40;99.90
48744;DHT22;34538;48.836;9.174;2023-05-17T08:30:23;11.50;99.90
48744;DHT22;34538;48.836;9.174;2023-05-17T08:32:51;11.50;99.90
48744;DHT22;34538;48.836;9.174;2023-05-17T08:35:18;11.40;99.90
48744;DHT22;34538;48.836;9.174;2023-05-17T08:37:45;11.50;99.90
48744;DHT22;34538;48.836;9.174;2023-05-17T08:40:13;11.50;99.90
48744;DHT22;34538;48.836;9.174;2023-05-17T08:42:44;11.60;99.90
48744;DHT22;34538;48.836;9.174;2023-05-17T08:45:12;11.60;99.90
48744;DHT22;34538;48.836;9.174;2023-05-17T08:47:40;11.70;99.90
48744;DHT22;34538;48.836;9.174;2023-05-17T08:50:10;11.70;99.90
48744;DHT22;34538;48.836;9.174;2023-05-17T08:52:38;11.70;99.90
48744;DHT22;34538;48.836;9.174;2023-05-17T08:55:07;11.90;99.90
48744;DHT22;34538;48.836;9.174;2023-05-17T08:57:34;12.00;99.90
48744;DHT22;34538;48.836;9.174;2023-05-17T09:00:02;11.90;99.90
48744;DHT22;34538;48.836;9.174;2023-05-17T09:02:31;11.90;99.90
48744;DHT22;34538;48.836;9.174;2023-05-17T09:04:59;11.80;99.90
48744;DHT22;34538;48.836;9.174;2023-05-17T09:07:27;11.90;99.90
48744;DHT22;34538;48.836;9.174;2023-05-17T09:09:54;11.90;99.90
48744;DHT22;34538;48.836;9.174;2023-05-17T09:12:21;12.00;99.90
48744;DHT22;34538;48.836;9.174;2023-05-17T09:14:48;12.20;99.90
48744;DHT22;34538;48.836;9.174;2023-05-17T09:17:16;12.10;99.90
48744;DHT22;34538;48.836;9.174;2023-05-17T09:19:44;12.20;99.90
48744;DHT22;34538;48.836;9.174;2023-05-17T09:22:16;12.30;99.90
48744;DHT22;34538;48.836;9.174;2023-05-17T09:24:45;12.50;99.90
48744;DHT22;34538;48.836;9.174;2023-05-17T09:27:14;12.70;99.90
48744;DHT22;34538;48.836;9.174;2023-05-17T09:29:43;12.70;99.90
48744;DHT22;34538;48.836;9.174;2023-05-17T09:32:14;12.90;99.90
48744;DHT22;34538;48.836;9.174;2023-05-17T09:34:41;12.90;99.90
48744;DHT22;34538;48.836;9.174;2023-05-17T09:37:14;12.90;99.90
48744;DHT22;34538;48.836;9.174;2023-05-17T09:39:42;12.90;99.90
48744;DHT22;34538;48.836;9.174;2023-05-17T09:42:10;13.00;99.90
48744;DHT22;34538;48.836;9.174;2023-05-17T09:44:48;13.10;99.90
48744;DHT22;34538;48.836;9.174;2023-05-17T09:47:26;13.30;99.90
48744;DHT22;34538;48.836;9.174;2023-05-17T09:49:55;13.40;99.90
48744;DHT22;34538;48.836;9.174;2023-05-17T09:52:25;13.50;99.90
48744;DHT22;34538;48.836;9.174;2023-05-17T09:54:57;13.60;99.90
48744;DHT22;34538;48.836;9.174;2023-05-17T09:57:27;13.60;99.90
48744;DHT22;34538;48.836;9.174;2023-05-17T09:59:55;13.70;99.90
48744;DHT22;34538;48.836;9.174;2023-05-17T10:02:26;13.60;99.90
48744;DHT22;34538;48.836;9.174;2023-05-17T10:04:55;13.60;99.90
48744;DHT22;34538;48.836;9.174;2023-05-17T10:07:24;13.60;99.90
48744;DHT22;34538;48.836;9.174;2023-05-17T10:09:52;13.50;99.90
48744;DHT22;34538;48.836;9.174;2023-05-17T10:12:21;13.50;99.90
48744;DHT22;34538;48.836;9.174;2023-05-17T10:14:51;13.50;99.90
48744;DHT22;34538;48.836;9.174;2023-05-17T10:17:20;13.30;99.90
48744;DHT22;34538;48.836;9.174;2023-05-17T10:19:48;13.30;99.90
48744;DHT22;34538;48.836;9.174;2023-05-17T10:22:16;13.30;99.90
48744;DHT22;34538;48.836;9.174;2023-05-17T10:24:43;13.20;99.90
48744;DHT22;34538;48.836;9.174;2023-05-17T10:27:11;13.20;99.90
48744;DHT22;34538;48.836;9.174;2023-05-17T10:29:40;13.20;99.90
48744;DHT22;34538;48.836;9.174;2023-05-17T10:32:08;13.20;99.90
48744;DHT22;34538;48.836;9.174;2023-05-17T10:34:39;13.20;99.90
48744;DHT22;34538;48.836;9.174;2023-05-17T10:37:06;13.30;99.90
48744;DHT22;34538;48.836;9.174;2023-05-17T10:39:33;13.40;99.90
48744;DHT22;34538;48.836;9.174;2023-05-17T10:42:04;13.60;99.90
48744;DHT22;34538;48.836;9.174;2023-05-17T10:44:33;13.60;99.90
48744;DHT22;34538;48.836;9.174;2023-05-17T10:47:02;13.80;99.90
48744;DHT22;34538;48.836;9.174;2023-05-17T10:49:32;13.90;99.90
48744;DHT22;34538;48.836;9.174;2023-05-17T10:52:11;13.90;99.90
48744;DHT22;34538;48.836;9.174;2023-05-17T10:54:40;13.90;99.90
48744;DHT22;34538;48.836;9.174;2023-05-17T10:57:08;13.90;99.90
48744;DHT22;34538;48.836;9.174;2023-05-17T10:59:55;13.90;99.90
48744;DHT22;34538;48.836;9.174;2023-05-17T11:02:23;14.00;99.90
48744;DHT22;34538;48.836;9.174;2023-05-17T11:04:51;14.10;99.90
48744;DHT22;34538;48.836;9.174;2023-05-17T11:07:22;14.10;99.90
48744;DHT22;34538;48.836;9.174;2023-05-17T11:09:53;14.10;99.90
48744;DHT22;34538;48.836;9.174;2023-05-17T11:12:31;14.10;99.90
48744;DHT22;34538;48.836;9.174;2023-05-17T11:15:03;14.20;99.90
48744;DHT22;34538;48.836;9.174;2023-05-17T11:17:34;14.10;99.90
48744;DHT22;34538;48.836;9.174;2023-05-17T11:20:06;14.10;99.90
48744;DHT22;34538;48.836;9.174;2023-05-17T11:22:37;14.10;99.90
48744;DHT22;34538;48.836;9.174;2023-05-17T11:25:09;14.10;99.90
48744;DHT22;34538;48.836;9.174;2023-05-17T11:27:38;14.20;99.90
48744;DHT22;34538;48.836;9.174;2023-05-17T11:30:16;14.00;99.90
48744;DHT22;34538;48.836;9.174;2023-05-17T11:32:48;14.10;99.90
48744;DHT22;34538;48.836;9.174;2023-05-17T11:35:16;14.20;99.90
48744;DHT22;34538;48.836;9.174;2023-05-17T11:37:43;14.10;99.90
48744;DHT22;34538;48.836;9.174;2023-05-17T11:40:11;13.90;99.90
48744;DHT22;34538;48.836;9.174;2023-05-17T11:42:39;13.90;99.90
48744;DHT22;34538;48.836;9.174;2023-05-17T11:45:07;13.90;99.90
48744;DHT22;34538;48.836;9.174;2023-05-17T11:47:38;14.00;99.90
48744;DHT22;34538;48.836;9.174;2023-05-17T11:50:07;14.10;99.90
48744;DHT22;34538;48.836;9.174;2023-05-17T11:52:35;14.10;99.90
48744;DHT22;34538;48.836;9.174;2023-05-17T11:55:03;14.20;99.90
48744;DHT22;34538;48.836;9.174;2023-05-17T11:57:31;14.20;99.90
48744;DHT22;34538;48.836;9.174;2023-05-17T11:59:58;14.10;99.90
48744;DHT22;34538;48.836;9.174;2023-05-17T12:02:26;14.10;99.90
48744;DHT22;34538;48.836;9.174;2023-05-17T12:04:53;14.10;99.90
48744;DHT22;34538;48.836;9.174;2023-05-17T12:07:20;14.10;99.90
48744;DHT22;34538;48.836;9.174;2023-05-17T12:09:48;14.10;99.90
48744;DHT22;34538;48.836;9.174;2023-05-17T12:12:15;14.00;99.80
48744;DHT22;34538;48.836;9.174;2023-05-17T12:14:42;14.00;99.90
48744;DHT22;34538;48.836;9.174;2023-05-17T12:17:12;14.00;99.90
48744;DHT22;34538;48.836;9.174;2023-05-17T12:19:44;14.00;99.90
48744;DHT22;34538;48.836;9.174;2023-05-17T12:22:11;14.00;99.90
48744;DHT22;34538;48.836;9.174;2023-05-17T12:24:39;14.10;99.90
48744;DHT22;34538;48.836;9.174;2023-05-17T12:27:07;14.20;99.90
48744;DHT22;34538;48.836;9.174;2023-05-17T12:29:34;14.20;99.90
48744;DHT22;34538;48.836;9.174;2023-05-17T12:32:01;14.30;99.90
48744;DHT22;34538;48.836;9.174;2023-05-17T12:34:28;14.30;99.90
48744;DHT22;34538;48.836;9.174;2023-05-17T12:36:56;14.30;99.90
48744;DHT22;34538;48.836;9.174;2023-05-17T12:39:24;14.30;99.90
48744;DHT22;34538;48.836;9.174;2023-05-17T12:41:51;14.40;99.90
48744;DHT22;34538;48.836;9.174;2023-05-17T12:44:19;14.40;99.90
48744;DHT22;34538;48.836;9.174;2023-05-17T12:46:47;14.40;99.90
48744;DHT22;34538;48.836;9.174;2023-05-17T12:49:18;14.40;99.90
48744;DHT22;34538;48.836;9.174;2023-05-17T12:51:47;14.40;99.90
48744;DHT22;34538;48.836;9.174;2023-05-17T12:54:24;14.50;99.90
48744;DHT22;34538;48.836;9.174;2023-05-17T12:56:52;14.50;99.90
48744;DHT22;34538;48.836;9.174;2023-05-17T12:59:21;14.50;99.90
48744;DHT22;34538;48.836;9.174;2023-05-17T13:01:51;14.30;99.70
48744;DHT22;34538;48.836;9.174;2023-05-17T13:04:19;14.20;99.90
48744;DHT22;34538;48.836;9.174;2023-05-17T13:06:47;14.20;99.90
48744;DHT22;34538;48.836;9.174;2023-05-17T13:09:15;14.20;99.90
48744;DHT22;34538;48.836;9.174;2023-05-17T13:11:43;14.10;99.90
48744;DHT22;34538;48.836;9.174;2023-05-17T13:14:10;14.10;99.90
48744;DHT22;34538;48.836;9.174;2023-05-17T13:16:39;14.10;99.90
48744;DHT22;34538;48.836;9.174;2023-05-17T13:19:13;14.10;99.90
48744;DHT22;34538;48.836;9.174;2023-05-17T13:21:40;14.10;99.90
48744;DHT22;34538;48.836;9.174;2023-05-17T13:24:08;14.20;99.90
48744;DHT22;34538;48.836;9.174;2023-05-17T13:26:35;14.10;99.90
48744;DHT22;34538;48.836;9.174;2023-05-17T13:29:02;14.20;99.90
48744;DHT22;34538;48.836;9.174;2023-05-17T13:31:28;14.30;99.70
48744;DHT22;34538;48.836;9.174;2023-05-17T13:33:56;14.50;99.60
48744;DHT22;34538;48.836;9.174;2023-05-17T13:36:23;14.50;99.90
48744;DHT22;34538;48.836;9.174;2023-05-17T13:38:50;14.50;99.70
48744;DHT22;34538;48.836;9.174;2023-05-17T13:41:17;14.50;99.80
48744;DHT22;34538;48.836;9.174;2023-05-17T13:43:44;14.50;99.70
48744;DHT22;34538;48.836;9.174;2023-05-17T13:46:11;14.50;99.90
48744;DHT22;34538;48.836;9.174;2023-05-17T13:48:37;14.60;99.90
48744;DHT22;34538;48.836;9.174;2023-05-17T13:51:05;14.70;99.90
48744;DHT22;34538;48.836;9.174;2023-05-17T13:53:32;14.80;99.90
48744;DHT22;34538;48.836;9.174;2023-05-17T13:55:59;14.90;99.60
48744;DHT22;34538;48.836;9.174;2023-05-17T13:58:26;14.90;98.80
48744;DHT22;34538;48.836;9.174;2023-05-17T14:00:53;14.80;98.20
48744;DHT22;34538;48.836;9.174;2023-05-17T14:03:19;14.80;99.20
48744;DHT22;34538;48.836;9.174;2023-05-17T14:05:46;14.80;99.80
48744;DHT22;34538;48.836;9.174;2023-05-17T14:08:16;14.80;99.60
48744;DHT22;34538;48.836;9.174;2023-05-17T14:10:43;14.80;99.00
48744;DHT22;34538;48.836;9.174;2023-05-17T14:13:10;14.80;99.70
48744;DHT22;34538;48.836;9.174;2023-05-17T14:15:37;14.70;99.70
48744;DHT22;34538;48.836;9.174;2023-05-17T14:18:05;14.70;99.90
48744;DHT22;34538;48.836;9.174;2023-05-17T14:20:32;14.60;99.90
48744;DHT22;34538;48.836;9.174;2023-05-17T14:22:59;14.50;99.70
48744;DHT22;34538;48.836;9.174;2023-05-17T14:25:27;14.40;99.90
48744;DHT22;34538;48.836;9.174;2023-05-17T14:27:54;14.30;99.90
48744;DHT22;34538;48.836;9.174;2023-05-17T14:30:21;14.30;99.90
48744;DHT22;34538;48.836;9.174;2023-05-17T14:32:48;14.10;99.20
48744;DHT22;34538;48.836;9.174;2023-05-17T14:35:15;14.10;99.50
48744;DHT22;34538;48.836;9.174;2023-05-17T14:37:42;14.10;99.00
48744;DHT22;34538;48.836;9.174;2023-05-17T14:40:09;14.00;99.00
48744;DHT22;34538;48.836;9.174;2023-05-17T14:42:38;13.90;99.40
48744;DHT22;34538;48.836;9.174;2023-05-17T14:45:07;13.90;99.20
48744;DHT22;34538;48.836;9.174;2023-05-17T14:47:34;13.80;99.10
48744;DHT22;34538;48.836;9.174;2023-05-17T14:50:00;13.80;99.70
48744;DHT22;34538;48.836;9.174;2023-05-17T14:52:27;13.80;99.90
48744;DHT22;34538;48.836;9.174;2023-05-17T14:54:55;13.60;99.90
48744;DHT22;34538;48.836;9.174;2023-05-17T14:57:22;13.50;99.90
48744;DHT22;34538;48.836;9.174;2023-05-17T14:59:50;13.40;99.90
48744;DHT22;34538;48.836;9.174;2023-05-17T15:02:17;13.30;99.90
48744;DHT22;34538;48.836;9.174;2023-05-17T15:04:44;13.30;99.90
48744;DHT22;34538;48.836;9.174;2023-05-17T15:07:11;13.30;99.90
48744;DHT22;34538;48.836;9.174;2023-05-17T15:09:38;13.20;99.90
48744;DHT22;34538;48.836;9.174;2023-05-17T15:12:07;13.20;99.90
48744;DHT22;34538;48.836;9.174;2023-05-17T15:14:34;13.30;99.90
48744;DHT22;34538;48.836;9.174;2023-05-17T15:17:02;13.30;99.90
48744;DHT22;34538;48.836;9.174;2023-05-17T15:19:29;13.40;99.90
48744;DHT22;34538;48.836;9.174;2023-05-17T15:21:56;13.50;99.90
48744;DHT22;34538;48.836;9.174;2023-05-17T15:24:23;13.60;99.90
48744;DHT22;34538;48.836;9.174;2023-05-17T15:26:50;13.60;99.90
48744;DHT22;34538;48.836;9.174;2023-05-17T15:29:17;13.70;99.90
48744;DHT22;34538;48.836;9.174;2023-05-17T15:31:44;13.70;99.90
48744;DHT22;34538;48.836;9.174;2023-05-17T15:34:12;13.80;99.90
48744;DHT22;34538;48.836;9.174;2023-05-17T15:36:38;13.90;99.90
48744;DHT22;34538;48.836;9.174;2023-05-17T15:39:05;14.00;99.90
48744;DHT22;34538;48.836;9.174;2023-05-17T15:41:33;14.10;99.90
48744;DHT22;34538;48.836;9.174;2023-05-17T15:44:00;14.10;99.90